createdAt,value
2022-12-25T00:01:22.786Z,4.88
2022-12-25T00:03:53.118Z,4.89
2022-12-25T00:06:23.490Z,4.86
2022-12-25T00:08:52.993Z,4.80
2022-12-25T00:11:23.207Z,4.78
2022-12-25T00:13:53.443Z,4.81
2022-12-25T00:16:27.410Z,4.79
2022-12-25T00:18:58.978Z,4.83
2022-12-25T00:21:28.402Z,4.82
2022-12-25T00:23:58.854Z,4.82
2022-12-25T00:26:29.557Z,4.87
2022-12-25T00:29:00.549Z,4.92
2022-12-25T00:31:32.525Z,4.94
2022-12-25T00:34:01.925Z,4.95
2022-12-25T00:36:33.725Z,4.95
2022-12-25T00:39:07.403Z,5.00
2022-12-25T00:41:49.335Z,4.92
2022-12-25T00:44:18.826Z,5.01
2022-12-25T00:46:50.871Z,5.07
2022-12-25T00:49:20.239Z,5.14
2022-12-25T00:51:51.025Z,5.20
2022-12-25T00:54:20.723Z,5.50
2022-12-25T00:56:50.410Z,5.22
2022-12-25T00:59:19.824Z,5.12
2022-12-25T01:01:51.844Z,4.99
2022-12-25T01:04:21.370Z,4.94
2022-12-25T01:06:50.735Z,4.90
2022-12-25T01:09:32.629Z,4.92
2022-12-25T01:12:01.973Z,4.85
2022-12-25T01:14:31.340Z,4.78
2022-12-25T01:17:03.279Z,4.76
2022-12-25T01:19:32.620Z,4.76
2022-12-25T01:22:01.999Z,4.74
2022-12-25T01:24:31.392Z,4.80
2022-12-25T01:27:00.756Z,4.75
2022-12-25T01:29:30.177Z,4.77
2022-12-25T01:31:59.631Z,4.70
2022-12-25T01:34:31.696Z,4.79
2022-12-25T01:37:01.109Z,4.75
2022-12-25T01:39:30.453Z,4.75
2022-12-25T01:42:00.051Z,4.69
2022-12-25T01:44:59.606Z,4.69
2022-12-25T01:47:28.988Z,4.74
2022-12-25T01:50:01.152Z,4.72
2022-12-25T01:52:31.804Z,4.71
2022-12-25T01:55:06.212Z,4.78
2022-12-25T01:57:38.692Z,4.80
2022-12-25T02:00:10.315Z,4.79
2022-12-25T02:02:40.946Z,4.79
2022-12-25T02:05:18.668Z,4.80
2022-12-25T02:07:49.717Z,4.76
2022-12-25T02:10:19.741Z,4.71
2022-12-25T02:12:50.870Z,4.65
2022-12-25T02:15:22.751Z,4.59
2022-12-25T02:18:03.755Z,4.59
2022-12-25T02:20:46.291Z,4.67
2022-12-25T02:23:37.162Z,4.74
2022-12-25T02:26:19.010Z,4.80
2022-12-25T02:28:57.884Z,4.88
2022-12-25T02:31:35.017Z,4.99
2022-12-25T02:34:11.510Z,5.18
2022-12-25T02:36:47.258Z,5.20
2022-12-25T02:39:43.110Z,5.26
2022-12-25T02:42:19.360Z,5.31
2022-12-25T02:45:05.799Z,5.34
2022-12-25T02:47:49.351Z,5.32
2022-12-25T02:50:32.725Z,5.28
2022-12-25T02:53:16.735Z,5.21
2022-12-25T02:56:01.963Z,5.07
2022-12-25T02:58:45.234Z,5.07
2022-12-25T03:01:32.672Z,5.19
2022-12-25T03:04:18.454Z,5.25
2022-12-25T03:07:03.621Z,5.31
2022-12-25T03:09:50.697Z,5.33
2022-12-25T03:12:27.799Z,5.29
2022-12-25T03:15:09.885Z,5.14
2022-12-25T03:17:41.954Z,5.00
2022-12-25T03:20:25.390Z,4.92
2022-12-25T03:23:08.520Z,4.92
2022-12-25T03:25:50.873Z,4.91
2022-12-25T03:28:20.261Z,5.01
2022-12-25T03:31:14.207Z,5.10
2022-12-25T03:34:24.784Z,5.12
2022-12-25T03:37:14.466Z,5.17
2022-12-25T03:40:04.344Z,5.14
2022-12-25T03:42:52.630Z,5.23
2022-12-25T03:45:40.705Z,5.23
2022-12-25T03:48:25.412Z,5.21
2022-12-25T03:51:16.456Z,5.29
2022-12-25T03:54:02.450Z,5.31
2022-12-25T03:56:45.855Z,5.24
2022-12-25T03:59:27.762Z,5.27
2022-12-25T04:02:09.841Z,5.40
2022-12-25T04:04:52.449Z,5.40
2022-12-25T04:07:36.985Z,5.43
2022-12-25T04:10:19.509Z,5.36
2022-12-25T04:13:01.492Z,5.35
2022-12-25T04:15:43.439Z,5.35
2022-12-25T04:18:25.805Z,5.35
2022-12-25T04:21:22.917Z,5.39
2022-12-25T04:24:07.355Z,5.42
2022-12-25T04:26:49.254Z,5.44
2022-12-25T04:29:31.146Z,5.43
2022-12-25T04:32:13.043Z,5.40
2022-12-25T04:34:54.942Z,5.35
2022-12-25T04:37:24.382Z,5.28
2022-12-25T04:39:56.304Z,5.30
2022-12-25T04:42:25.700Z,5.25
2022-12-25T04:44:55.048Z,5.20
2022-12-25T04:47:24.422Z,5.21
2022-12-25T04:49:53.922Z,5.26
2022-12-25T04:52:23.330Z,5.24
2022-12-25T04:54:52.941Z,5.28
2022-12-25T04:57:24.940Z,5.34
2022-12-25T04:59:54.327Z,5.44
2022-12-25T05:02:23.826Z,5.45
2022-12-25T05:04:53.344Z,5.51
2022-12-25T05:07:22.718Z,5.63
2022-12-25T05:09:52.093Z,5.68
2022-12-25T05:12:21.454Z,5.73
2022-12-25T05:14:53.401Z,5.79
2022-12-25T05:17:22.773Z,5.76
2022-12-25T05:19:52.141Z,5.81
2022-12-25T05:22:21.525Z,5.84
2022-12-25T05:24:50.859Z,5.85
2022-12-25T05:27:20.297Z,5.87
2022-12-25T05:29:49.671Z,5.88
2022-12-25T05:32:21.638Z,5.91
2022-12-25T05:34:51.066Z,5.96
2022-12-25T05:37:20.505Z,5.97
2022-12-25T05:39:49.874Z,5.99
2022-12-25T05:42:19.219Z,5.98
2022-12-25T05:44:48.566Z,6.03
2022-12-25T05:47:17.947Z,6.03
2022-12-25T05:49:49.882Z,6.06
2022-12-25T05:52:19.244Z,6.11
2022-12-25T05:54:48.614Z,6.15
2022-12-25T05:57:17.984Z,6.20
2022-12-25T05:59:47.292Z,6.21
2022-12-25T06:02:16.735Z,6.23
2022-12-25T06:04:46.265Z,6.22
2022-12-25T06:07:18.172Z,6.14
2022-12-25T06:09:47.538Z,6.11
2022-12-25T06:12:17.038Z,6.14
2022-12-25T06:14:46.399Z,6.22
2022-12-25T06:17:15.847Z,6.25
2022-12-25T06:19:45.645Z,6.26
2022-12-25T06:22:14.995Z,6.25
2022-12-25T06:24:47.127Z,6.28
2022-12-25T06:27:16.510Z,6.32
2022-12-25T06:29:45.894Z,6.34
2022-12-25T06:32:15.326Z,6.28
2022-12-25T06:34:44.743Z,6.38
2022-12-25T06:37:14.200Z,6.39
2022-12-25T06:39:43.632Z,6.46
2022-12-25T06:42:15.596Z,6.51
2022-12-25T06:44:44.970Z,6.52
2022-12-25T06:47:14.370Z,6.53
2022-12-25T06:49:43.752Z,6.55
2022-12-25T06:52:13.193Z,6.55
2022-12-25T06:54:42.554Z,6.55
2022-12-25T06:57:12.038Z,6.51
2022-12-25T06:59:45.604Z,6.43
2022-12-25T07:02:22.422Z,6.36
2022-12-25T07:04:52.124Z,6.34
2022-12-25T07:07:23.030Z,6.29
2022-12-25T07:09:52.616Z,6.31
2022-12-25T07:12:24.449Z,6.26
2022-12-25T07:14:57.321Z,6.24
2022-12-25T07:17:27.331Z,6.31
2022-12-25T07:19:57.280Z,6.39
2022-12-25T07:22:26.750Z,6.42
2022-12-25T07:24:56.162Z,6.50
2022-12-25T07:27:25.580Z,6.46
2022-12-25T07:29:57.541Z,6.40
2022-12-25T07:32:26.940Z,6.54
2022-12-25T07:34:56.323Z,6.58
2022-12-25T07:37:25.729Z,6.61
2022-12-25T07:39:55.125Z,6.58
2022-12-25T07:42:25.469Z,6.62
2022-12-25T07:44:59.750Z,6.63
2022-12-25T07:47:29.107Z,6.69
2022-12-25T07:49:58.495Z,6.69
2022-12-25T07:52:27.940Z,6.70
2022-12-25T07:54:57.314Z,6.73
2022-12-25T07:57:26.719Z,6.69
2022-12-25T07:59:58.723Z,6.59
2022-12-25T08:02:29.195Z,6.57
2022-12-25T08:04:58.882Z,6.61
2022-12-25T08:07:28.610Z,6.61
2022-12-25T08:09:58.081Z,6.66
2022-12-25T08:12:27.484Z,6.64
2022-12-25T08:14:59.473Z,6.74
2022-12-25T08:17:28.929Z,6.77
2022-12-25T08:19:58.327Z,6.77
2022-12-25T08:22:27.765Z,6.80
2022-12-25T08:24:57.152Z,6.85
2022-12-25T08:27:26.699Z,6.88
2022-12-25T08:29:58.674Z,6.92
2022-12-25T08:32:28.322Z,6.97
2022-12-25T08:34:57.746Z,7.02
2022-12-25T08:37:27.175Z,7.02
2022-12-25T08:39:56.557Z,7.10
2022-12-25T08:42:25.980Z,7.17
2022-12-25T08:44:55.433Z,7.22
2022-12-25T08:47:27.422Z,7.29
2022-12-25T08:49:56.783Z,7.33
2022-12-25T08:52:26.570Z,7.40
2022-12-25T08:54:56.351Z,7.41
2022-12-25T08:57:25.752Z,7.49
2022-12-25T08:59:55.214Z,7.44
2022-12-25T09:02:27.376Z,7.44
2022-12-25T09:04:56.911Z,7.42
2022-12-25T09:07:26.325Z,7.44
2022-12-25T09:10:04.507Z,7.55
2022-12-25T09:12:33.917Z,7.63
2022-12-25T09:15:03.270Z,7.69
2022-12-25T09:17:35.857Z,7.76
2022-12-25T09:20:05.937Z,7.82
2022-12-25T09:22:36.430Z,7.98
2022-12-25T09:25:06.171Z,8.01
2022-12-25T09:27:35.563Z,8.01
2022-12-25T09:30:04.986Z,8.08
2022-12-25T09:32:36.993Z,8.09
2022-12-25T09:35:06.672Z,8.14
2022-12-25T09:37:36.083Z,8.18
2022-12-25T09:40:05.900Z,8.17
2022-12-25T09:42:35.451Z,8.19
2022-12-25T09:45:08.467Z,8.19
2022-12-25T09:47:44.580Z,8.18
2022-12-25T09:50:16.499Z,8.21
2022-12-25T09:52:52.540Z,8.23
2022-12-25T09:55:25.323Z,8.27
2022-12-25T09:57:55.455Z,8.32
2022-12-25T10:00:26.767Z,8.36
2022-12-25T10:03:14.915Z,8.35
2022-12-25T10:05:55.644Z,8.35
2022-12-25T10:08:38.447Z,8.37
2022-12-25T10:11:18.831Z,8.34
2022-12-25T10:14:02.667Z,8.34
2022-12-25T10:16:40.029Z,8.37
2022-12-25T10:19:29.658Z,8.35
2022-12-25T10:22:03.284Z,8.38
2022-12-25T10:24:39.184Z,8.44
2022-12-25T10:27:16.843Z,8.48
2022-12-25T10:29:47.432Z,8.54
2022-12-25T10:32:17.039Z,8.55
2022-12-25T10:34:49.627Z,8.58
2022-12-25T10:37:19.639Z,8.55
2022-12-25T10:39:49.021Z,8.54
2022-12-25T10:42:33.602Z,8.63
2022-12-25T10:45:04.470Z,8.68
2022-12-25T10:47:37.985Z,8.66
2022-12-25T10:50:15.413Z,8.62
2022-12-25T10:52:57.271Z,8.66
2022-12-25T10:55:29.567Z,8.68
2022-12-25T10:58:02.075Z,8.62
2022-12-25T11:00:33.674Z,8.61
2022-12-25T11:03:03.423Z,8.65
2022-12-25T11:05:37.624Z,8.64
2022-12-25T11:08:21.844Z,8.57
2022-12-25T11:10:57.890Z,8.62
2022-12-25T11:13:29.844Z,8.57
2022-12-25T11:16:09.495Z,8.66
2022-12-25T11:18:49.627Z,8.69
2022-12-25T11:21:25.556Z,8.76
2022-12-25T11:24:00.302Z,8.80
2022-12-25T11:26:31.315Z,8.84
2022-12-25T11:29:01.249Z,8.85
2022-12-25T11:31:39.873Z,8.95
2022-12-25T11:34:14.214Z,9.04
2022-12-25T11:36:49.578Z,9.15
2022-12-25T11:39:26.636Z,9.16
2022-12-25T11:42:00.532Z,9.17
2022-12-25T11:44:43.723Z,9.18
2022-12-25T11:47:20.399Z,9.17
2022-12-25T11:49:58.622Z,9.19
2022-12-25T11:52:38.072Z,9.23
2022-12-25T11:55:14.421Z,9.27
2022-12-25T11:57:46.260Z,9.31
2022-12-25T12:00:18.759Z,9.26
2022-12-25T12:02:53.973Z,9.25
2022-12-25T12:05:28.561Z,9.20
2022-12-25T12:08:03.245Z,9.07
2022-12-25T12:10:41.156Z,9.04
2022-12-25T12:13:27.783Z,9.09
2022-12-25T12:15:58.535Z,9.03
2022-12-25T12:18:33.511Z,9.03
2022-12-25T12:21:05.581Z,8.99
2022-12-25T12:23:39.850Z,9.03
2022-12-25T12:26:09.293Z,9.00
2022-12-25T12:28:47.564Z,8.91
2022-12-25T12:31:17.709Z,8.90
2022-12-25T12:33:56.032Z,8.88
2022-12-25T12:36:35.561Z,8.87
2022-12-25T12:39:08.693Z,8.85
2022-12-25T12:41:48.374Z,8.86
2022-12-25T12:44:19.652Z,8.83
2022-12-25T12:46:57.710Z,8.84
2022-12-25T12:49:29.409Z,8.83
2022-12-25T12:52:16.114Z,8.86
2022-12-25T12:54:59.618Z,8.81
2022-12-25T12:57:32.758Z,8.84
2022-12-25T13:00:10.042Z,8.78
2022-12-25T13:03:05.560Z,8.90
2022-12-25T13:05:41.807Z,8.88
2022-12-25T13:08:28.341Z,8.87
2022-12-25T13:11:13.250Z,8.83
2022-12-25T13:13:44.577Z,8.80
2022-12-25T13:16:22.353Z,8.82
2022-12-25T13:18:53.760Z,8.82
2022-12-25T13:21:25.572Z,8.82
2022-12-25T13:24:08.876Z,8.83
2022-12-25T13:26:42.097Z,8.81
2022-12-25T13:29:25.032Z,8.78
2022-12-25T13:31:54.247Z,8.76
2022-12-25T13:34:33.790Z,8.77
2022-12-25T13:37:09.714Z,8.75
2022-12-25T13:39:42.114Z,8.71
2022-12-25T13:42:20.689Z,8.62
2022-12-25T13:44:52.614Z,8.65
2022-12-25T13:47:25.691Z,8.57
2022-12-25T13:49:56.936Z,8.60
2022-12-25T13:52:31.143Z,8.58
2022-12-25T13:55:02.877Z,8.56
2022-12-25T13:57:37.986Z,8.55
2022-12-25T14:00:10.062Z,8.58
2022-12-25T14:02:42.223Z,8.52
2022-12-25T14:05:26.267Z,8.51
2022-12-25T14:07:56.247Z,8.50
2022-12-25T14:10:27.864Z,8.54
2022-12-25T14:13:04.785Z,8.53
2022-12-25T14:15:36.426Z,8.48
2022-12-25T14:18:05.922Z,8.50
2022-12-25T14:20:39.788Z,8.49
2022-12-25T14:23:10.092Z,8.50
2022-12-25T14:25:45.689Z,8.49
2022-12-25T14:28:23.439Z,8.53
2022-12-25T14:30:53.096Z,8.53
2022-12-25T14:33:25.930Z,8.53
2022-12-25T14:35:55.677Z,8.48
2022-12-25T14:38:27.400Z,8.47
2022-12-25T14:41:04.499Z,8.49
2022-12-25T14:43:37.165Z,8.44
2022-12-25T14:46:09.081Z,8.48
2022-12-25T14:48:38.497Z,8.48
2022-12-25T14:51:11.681Z,8.50
2022-12-25T14:53:43.794Z,8.49
2022-12-25T14:56:13.213Z,8.49
2022-12-25T14:58:50.924Z,8.46
2022-12-25T15:01:25.013Z,8.46
2022-12-25T15:03:54.973Z,8.45
2022-12-25T15:06:25.376Z,8.44
2022-12-25T15:09:00.082Z,8.45
2022-12-25T15:11:30.172Z,8.46
2022-12-25T15:14:02.386Z,8.46
2022-12-25T15:16:35.444Z,8.41
2022-12-25T15:19:04.889Z,8.44
2022-12-25T15:21:37.105Z,8.42
2022-12-25T15:24:07.186Z,8.40
2022-12-25T15:26:36.587Z,8.43
2022-12-25T15:29:09.433Z,8.43
2022-12-25T15:31:41.235Z,8.41
2022-12-25T15:34:20.373Z,8.42
2022-12-25T15:36:49.873Z,8.37
2022-12-25T15:39:19.238Z,8.36
2022-12-25T15:42:01.129Z,8.38
2022-12-25T15:44:33.068Z,8.38
2022-12-25T15:47:02.421Z,8.40
2022-12-25T15:49:31.851Z,8.42
2022-12-25T15:52:03.613Z,8.41
2022-12-25T15:54:33.210Z,8.38
2022-12-25T15:57:04.979Z,8.39
2022-12-25T15:59:36.943Z,8.40
2022-12-25T16:02:16.226Z,8.41
2022-12-25T16:04:46.409Z,8.41
2022-12-25T16:07:17.918Z,8.38
2022-12-25T16:09:47.775Z,8.37
2022-12-25T16:12:17.154Z,8.39
2022-12-25T16:14:49.129Z,8.37
2022-12-25T16:17:18.494Z,8.37
2022-12-25T16:19:48.006Z,8.42
2022-12-25T16:22:23.103Z,8.38
2022-12-25T16:24:52.905Z,8.39
2022-12-25T16:27:22.548Z,8.40
2022-12-25T16:29:55.029Z,8.40
2022-12-25T16:32:24.554Z,8.43
2022-12-25T16:34:54.091Z,8.41
2022-12-25T16:37:24.566Z,8.37
2022-12-25T16:39:53.965Z,8.38
2022-12-25T16:42:23.403Z,8.37
2022-12-25T16:44:55.377Z,8.36
2022-12-25T16:47:24.739Z,8.33
2022-12-25T16:49:54.094Z,8.34
2022-12-25T16:52:23.674Z,8.37
2022-12-25T16:54:53.044Z,8.41
2022-12-25T16:57:22.416Z,8.41
2022-12-25T16:59:54.720Z,8.36
2022-12-25T17:02:24.623Z,8.34
2022-12-25T17:04:54.703Z,8.37
2022-12-25T17:07:24.112Z,8.38
2022-12-25T17:09:53.530Z,8.41
2022-12-25T17:12:22.896Z,8.41
2022-12-25T17:14:54.938Z,8.38
2022-12-25T17:17:24.303Z,8.33
2022-12-25T17:19:53.711Z,8.40
2022-12-25T17:22:23.114Z,8.40
2022-12-25T17:24:52.503Z,8.41
2022-12-25T17:27:21.888Z,8.45
2022-12-25T17:29:51.519Z,8.45
2022-12-25T17:32:23.502Z,8.46
2022-12-25T17:34:53.362Z,8.44
2022-12-25T17:37:22.796Z,8.47
2022-12-25T17:39:52.152Z,8.41
2022-12-25T17:42:21.558Z,8.48
2022-12-25T17:44:51.001Z,8.48
2022-12-25T17:47:23.486Z,8.54
2022-12-25T17:49:53.025Z,8.56
2022-12-25T17:52:22.397Z,8.62
2022-12-25T17:54:51.819Z,8.68
2022-12-25T17:57:21.233Z,8.65
2022-12-25T17:59:51.679Z,8.70
2022-12-25T18:02:24.092Z,8.77
2022-12-25T18:04:53.697Z,8.81
2022-12-25T18:07:23.322Z,8.84
2022-12-25T18:09:52.950Z,8.88
2022-12-25T18:12:22.418Z,8.90
2022-12-25T18:14:51.794Z,8.90
2022-12-25T18:17:23.811Z,8.92
2022-12-25T18:19:53.343Z,8.94
2022-12-25T18:22:22.840Z,8.98
2022-12-25T18:24:52.700Z,9.02
2022-12-25T18:27:22.190Z,9.05
2022-12-25T18:29:51.524Z,9.07
2022-12-25T18:32:28.040Z,9.09
2022-12-25T18:34:58.035Z,9.10
2022-12-25T18:37:28.044Z,9.06
2022-12-25T18:39:57.447Z,9.07
2022-12-25T18:42:43.113Z,9.11
2022-12-25T18:45:14.830Z,9.12
2022-12-25T18:47:47.406Z,9.13
2022-12-25T18:50:16.819Z,9.13
2022-12-25T18:52:48.406Z,9.15
2022-12-25T18:55:20.793Z,9.17
2022-12-25T18:57:50.475Z,9.18
2022-12-25T19:00:20.626Z,9.22
2022-12-25T19:02:53.292Z,9.21
2022-12-25T19:05:23.670Z,9.21
2022-12-25T19:07:53.200Z,9.20
2022-12-25T19:10:22.836Z,9.21
2022-12-25T19:12:52.244Z,9.26
2022-12-25T19:15:21.664Z,9.30
2022-12-25T19:17:53.844Z,9.32
2022-12-25T19:20:23.245Z,9.33
2022-12-25T19:22:52.702Z,9.37
2022-12-25T19:25:22.295Z,9.35
2022-12-25T19:27:51.673Z,9.38
2022-12-25T19:30:21.224Z,9.39
2022-12-25T19:32:53.251Z,9.44
2022-12-25T19:35:22.828Z,9.47
2022-12-25T19:37:52.312Z,9.49
2022-12-25T19:40:22.628Z,9.49
2022-12-25T19:42:52.063Z,9.49
2022-12-25T19:45:21.587Z,9.48
2022-12-25T19:47:53.566Z,9.49
2022-12-25T19:50:28.349Z,9.51
2022-12-25T19:52:57.865Z,9.50
2022-12-25T19:55:27.291Z,9.52
2022-12-25T19:57:59.181Z,9.54
2022-12-25T20:00:28.652Z,9.55
2022-12-25T20:03:01.446Z,9.56
2022-12-25T20:05:31.911Z,9.54
2022-12-25T20:08:01.398Z,9.56
2022-12-25T20:10:30.770Z,9.55
2022-12-25T20:13:00.255Z,9.58
2022-12-25T20:15:29.617Z,9.56
2022-12-25T20:18:02.905Z,9.56
2022-12-25T20:20:32.940Z,9.57
2022-12-25T20:23:02.341Z,9.56
2022-12-25T20:25:31.801Z,9.60
2022-12-25T20:28:01.250Z,9.63
2022-12-25T20:30:30.685Z,9.66
2022-12-25T20:33:02.682Z,9.68
2022-12-25T20:35:32.089Z,9.68
2022-12-25T20:38:01.478Z,9.65
2022-12-25T20:40:32.461Z,9.65
2022-12-25T20:43:11.631Z,9.68
2022-12-25T20:45:43.103Z,9.78
2022-12-25T20:48:15.096Z,9.87
2022-12-25T20:50:44.487Z,9.88
2022-12-25T20:53:13.883Z,9.94
2022-12-25T20:55:48.114Z,9.97
2022-12-25T20:58:19.588Z,10.00
2022-12-25T21:00:49.048Z,10.00
2022-12-25T21:03:21.319Z,9.99
2022-12-25T21:05:54.015Z,9.93
2022-12-25T21:08:25.804Z,9.91
2022-12-25T21:11:00.679Z,9.91
2022-12-25T21:13:32.900Z,9.92
2022-12-25T21:16:02.785Z,9.93
2022-12-25T21:18:34.791Z,9.93
2022-12-25T21:21:09.972Z,9.92
2022-12-25T21:23:41.741Z,9.89
2022-12-25T21:26:16.808Z,9.88
2022-12-25T21:28:46.177Z,9.86
2022-12-25T21:31:15.721Z,9.85
2022-12-25T21:33:52.053Z,9.88
2022-12-25T21:36:27.096Z,9.89
2022-12-25T21:38:58.792Z,9.88
2022-12-25T21:41:29.892Z,9.88
2022-12-25T21:43:59.764Z,9.88
2022-12-25T21:46:30.444Z,9.87
2022-12-25T21:49:03.350Z,9.88
2022-12-25T21:51:47.505Z,9.85
2022-12-25T21:54:18.454Z,9.84
2022-12-25T21:56:49.738Z,9.83
2022-12-25T21:59:20.741Z,9.81
2022-12-25T22:01:51.752Z,9.82
2022-12-25T22:04:25.670Z,9.82
2022-12-25T22:07:07.778Z,9.81
2022-12-25T22:09:37.413Z,9.80
2022-12-25T22:12:19.878Z,9.79
2022-12-25T22:15:02.495Z,9.79
2022-12-25T22:17:46.344Z,9.78
2022-12-25T22:20:20.353Z,9.80
2022-12-25T22:22:50.131Z,9.89
2022-12-25T22:25:20.415Z,9.93
2022-12-25T22:27:50.945Z,9.90
2022-12-25T22:30:22.871Z,9.91
2022-12-25T22:32:52.536Z,9.94
2022-12-25T22:35:25.052Z,9.91
2022-12-25T22:37:54.799Z,9.91
2022-12-25T22:40:24.573Z,9.85
2022-12-25T22:42:56.497Z,9.86
2022-12-25T22:45:26.115Z,9.94
2022-12-25T22:47:55.501Z,9.96
2022-12-25T22:50:27.525Z,9.89
2022-12-25T22:52:56.896Z,9.92
2022-12-25T22:55:26.414Z,9.90
2022-12-25T22:57:55.807Z,9.93
2022-12-25T23:00:25.226Z,9.95
2022-12-25T23:02:54.727Z,9.94
2022-12-25T23:05:27.123Z,9.94
2022-12-25T23:07:56.554Z,9.92
2022-12-25T23:10:25.930Z,9.93
2022-12-25T23:13:07.813Z,9.92
2022-12-25T23:15:37.216Z,9.92
2022-12-25T23:18:19.688Z,9.96
2022-12-25T23:21:04.307Z,9.94
2022-12-25T23:23:46.217Z,9.95
2022-12-25T23:26:17.212Z,9.98
2022-12-25T23:28:59.269Z,10.00
2022-12-25T23:31:31.709Z,10.01
2022-12-25T23:34:01.286Z,10.01
2022-12-25T23:36:33.658Z,10.01
2022-12-25T23:39:09.562Z,10.00
2022-12-25T23:41:39.970Z,10.01
2022-12-25T23:44:09.788Z,10.02
2022-12-25T23:46:40.136Z,10.01
2022-12-25T23:49:11.291Z,10.01
2022-12-25T23:51:45.686Z,9.97
2022-12-25T23:54:17.613Z,9.99
2022-12-25T23:56:47.563Z,9.97
2022-12-25T23:59:17.345Z,9.96
